createdAt,value
2023-09-26T00:00:16.511Z,0.80
2023-09-26T00:02:43.240Z,0.95
2023-09-26T00:05:10.178Z,1.08
2023-09-26T00:07:37.869Z,0.75
2023-09-26T00:10:05.715Z,1.10
2023-09-26T00:12:32.812Z,0.82
2023-09-26T00:14:59.385Z,0.80
2023-09-26T00:17:25.865Z,1.20
2023-09-26T00:19:52.302Z,0.88
2023-09-26T00:22:18.973Z,0.80
2023-09-26T00:24:45.957Z,0.80
2023-09-26T00:27:12.473Z,0.88
2023-09-26T00:29:38.926Z,0.75
2023-09-26T00:32:05.695Z,0.80
2023-09-26T00:34:32.177Z,0.88
2023-09-26T00:36:58.647Z,0.70
2023-09-26T00:39:25.168Z,0.98
2023-09-26T00:41:51.955Z,0.93
2023-09-26T00:44:18.365Z,0.75
2023-09-26T00:46:47.210Z,0.60
2023-09-26T00:49:13.865Z,0.88
2023-09-26T00:51:40.564Z,1.00
2023-09-26T00:54:10.328Z,0.88
2023-09-26T00:56:39.652Z,1.10
2023-09-26T00:59:07.237Z,0.93
2023-09-26T01:01:35.237Z,1.00
2023-09-26T01:04:02.610Z,0.88
2023-09-26T01:06:29.325Z,0.80
2023-09-26T01:08:56.123Z,1.25
2023-09-26T01:11:22.613Z,1.00
2023-09-26T01:13:49.228Z,1.00
2023-09-26T01:16:17.391Z,1.02
2023-09-26T01:18:44.970Z,0.80
2023-09-26T01:21:11.752Z,0.70
2023-09-26T01:23:41.157Z,0.80
2023-09-26T01:26:07.591Z,0.90
2023-09-26T01:28:35.811Z,0.73
2023-09-26T01:31:02.566Z,0.80
2023-09-26T01:33:29.379Z,0.70
2023-09-26T01:35:55.827Z,0.80
2023-09-26T01:38:24.279Z,0.90
2023-09-26T01:40:50.668Z,0.88
2023-09-26T01:43:17.475Z,0.70
2023-09-26T01:45:44.199Z,1.00
2023-09-26T01:48:11.058Z,1.00
2023-09-26T01:50:37.524Z,1.00
2023-09-26T01:53:06.766Z,1.10
2023-09-26T01:55:33.291Z,0.90
2023-09-26T01:57:59.732Z,0.90
2023-09-26T02:00:26.175Z,1.00
2023-09-26T02:02:52.878Z,0.90
2023-09-26T02:05:21.742Z,1.02
2023-09-26T02:07:49.371Z,1.00
2023-09-26T02:10:16.618Z,0.93
2023-09-26T02:12:45.720Z,0.90
2023-09-26T02:15:13.353Z,1.10
2023-09-26T02:17:41.170Z,1.25
2023-09-26T02:20:16.333Z,1.10
2023-09-26T02:22:44.734Z,1.10
2023-09-26T02:25:12.092Z,1.33
2023-09-26T02:27:39.637Z,1.30
2023-09-26T02:30:07.540Z,1.00
2023-09-26T02:32:34.005Z,1.20
2023-09-26T02:35:00.608Z,1.30
2023-09-26T02:37:27.038Z,1.20
2023-09-26T02:39:53.590Z,1.08
2023-09-26T02:42:20.062Z,1.02
2023-09-26T02:44:46.432Z,1.15
2023-09-26T02:47:13.122Z,1.23
2023-09-26T02:49:39.751Z,1.10
2023-09-26T02:52:06.216Z,1.10
2023-09-26T02:54:32.603Z,0.98
2023-09-26T02:56:59.553Z,1.20
2023-09-26T02:59:25.965Z,1.23
2023-09-26T03:01:53.271Z,1.13
2023-09-26T03:04:19.924Z,1.13
2023-09-26T03:06:46.433Z,1.00
2023-09-26T03:09:12.825Z,1.20
2023-09-26T03:11:39.352Z,1.30
2023-09-26T03:14:05.718Z,1.15
2023-09-26T03:16:32.202Z,1.00
2023-09-26T03:18:58.818Z,1.00
2023-09-26T03:21:25.816Z,1.20
2023-09-26T03:23:52.378Z,1.52
2023-09-26T03:26:18.852Z,1.13
2023-09-26T03:28:45.373Z,1.08
2023-09-26T03:31:11.995Z,1.00
2023-09-26T03:33:38.879Z,0.80
2023-09-26T03:36:05.765Z,1.10
2023-09-26T03:38:32.783Z,1.25
2023-09-26T03:41:00.673Z,1.48
2023-09-26T03:43:29.961Z,1.30
2023-09-26T03:46:05.124Z,1.02
2023-09-26T03:48:32.602Z,1.48
2023-09-26T03:51:13.127Z,1.33
2023-09-26T03:53:40.269Z,1.42
2023-09-26T03:56:07.021Z,1.00
2023-09-26T03:58:33.783Z,1.08
2023-09-26T04:01:13.454Z,1.15
2023-09-26T04:03:41.518Z,1.10
2023-09-26T04:06:08.852Z,1.05
2023-09-26T04:08:35.350Z,1.13
2023-09-26T04:11:01.895Z,1.20
2023-09-26T04:13:28.437Z,0.88
2023-09-26T04:15:56.250Z,1.00
2023-09-26T04:18:23.798Z,1.17
2023-09-26T04:20:51.494Z,1.00
2023-09-26T04:23:18.122Z,1.25
2023-09-26T04:25:45.029Z,1.08
2023-09-26T04:28:11.469Z,1.00
2023-09-26T04:30:39.661Z,0.90
2023-09-26T04:33:07.851Z,0.80
2023-09-26T04:35:34.422Z,0.93
2023-09-26T04:38:00.932Z,0.90
2023-09-26T04:40:27.538Z,0.43
2023-09-26T04:42:54.085Z,1.05
2023-09-26T04:45:20.499Z,1.13
2023-09-26T04:47:48.114Z,0.82
2023-09-26T04:50:14.558Z,0.98
2023-09-26T04:52:41.023Z,0.98
2023-09-26T04:55:07.687Z,0.68
2023-09-26T04:57:34.627Z,0.80
2023-09-26T05:00:01.014Z,0.80
2023-09-26T05:02:27.517Z,0.90
2023-09-26T05:04:54.095Z,0.70
2023-09-26T05:07:20.589Z,0.60
2023-09-26T05:09:47.062Z,0.52
2023-09-26T05:12:13.440Z,0.50
2023-09-26T05:14:39.823Z,0.93
2023-09-26T05:17:06.275Z,0.80
2023-09-26T05:19:32.856Z,0.60
2023-09-26T05:21:59.316Z,0.50
2023-09-26T05:24:25.754Z,0.75
2023-09-26T05:26:53.213Z,0.50
2023-09-26T05:29:19.618Z,1.05
2023-09-26T05:31:46.032Z,0.70
2023-09-26T05:34:12.509Z,0.90
2023-09-26T05:36:38.891Z,0.77
2023-09-26T05:39:05.406Z,0.60
2023-09-26T05:41:31.768Z,1.05
2023-09-26T05:43:58.156Z,0.90
2023-09-26T05:46:24.699Z,0.93
2023-09-26T05:48:51.286Z,1.10
2023-09-26T05:51:17.764Z,1.00
2023-09-26T05:53:44.242Z,0.95
2023-09-26T05:56:10.636Z,0.90
2023-09-26T05:58:37.089Z,1.08
2023-09-26T06:01:08.812Z,0.82
2023-09-26T06:03:35.497Z,1.10
2023-09-26T06:06:04.869Z,0.90
2023-09-26T06:08:31.430Z,0.80
2023-09-26T06:10:57.948Z,1.20
2023-09-26T06:13:24.433Z,1.00
2023-09-26T06:15:51.070Z,1.10
2023-09-26T06:18:17.724Z,1.40
2023-09-26T06:20:45.630Z,1.23
2023-09-26T06:23:13.235Z,1.27
2023-09-26T06:25:50.468Z,1.40
2023-09-26T06:28:20.990Z,1.40
2023-09-26T06:30:48.274Z,1.45
2023-09-26T06:33:14.842Z,1.48
2023-09-26T06:35:42.730Z,1.45
2023-09-26T06:38:09.160Z,1.48
2023-09-26T06:40:35.540Z,1.33
2023-09-26T06:43:03.810Z,1.38
2023-09-26T06:45:31.296Z,2.10
2023-09-26T06:47:58.236Z,1.50
2023-09-26T06:50:24.764Z,1.48
2023-09-26T06:52:51.170Z,1.80
2023-09-26T06:55:17.761Z,1.40
2023-09-26T06:57:44.356Z,1.42
2023-09-26T07:00:17.449Z,1.60
2023-09-26T07:02:44.608Z,1.38
2023-09-26T07:05:11.325Z,1.85
2023-09-26T07:07:38.122Z,1.85
2023-09-26T07:10:04.895Z,2.03
2023-09-26T07:12:31.646Z,1.85
2023-09-26T07:14:58.103Z,1.58
2023-09-26T07:17:24.877Z,1.60
2023-09-26T07:19:51.315Z,1.80
2023-09-26T07:22:17.820Z,1.75
2023-09-26T07:24:50.166Z,2.10
2023-09-26T07:27:19.104Z,2.08
2023-09-26T07:29:47.725Z,2.00
2023-09-26T07:32:16.351Z,1.83
2023-09-26T07:34:42.882Z,1.80
2023-09-26T07:37:09.510Z,1.90
2023-09-26T07:39:36.041Z,2.10
2023-09-26T07:42:02.759Z,2.13
2023-09-26T07:44:29.512Z,2.10
2023-09-26T07:46:56.148Z,2.28
2023-09-26T07:49:22.673Z,2.40
2023-09-26T07:51:49.855Z,2.45
2023-09-26T07:54:16.354Z,1.77
2023-09-26T07:56:42.974Z,2.13
2023-09-26T07:59:09.444Z,2.13
2023-09-26T08:01:35.975Z,2.22
2023-09-26T08:04:03.814Z,2.50
2023-09-26T08:06:30.275Z,2.55
2023-09-26T08:08:58.652Z,2.63
2023-09-26T08:11:29.028Z,2.25
2023-09-26T08:13:57.762Z,2.42
2023-09-26T08:16:24.683Z,2.58
2023-09-26T08:18:51.806Z,2.42
2023-09-26T08:21:18.895Z,2.20
2023-09-26T08:23:45.676Z,2.30
2023-09-26T08:26:13.113Z,2.35
2023-09-26T08:28:40.410Z,2.35
2023-09-26T08:31:11.038Z,2.15
2023-09-26T08:33:38.344Z,2.00
2023-09-26T08:36:14.818Z,2.33
2023-09-26T08:38:41.228Z,2.35
2023-09-26T08:41:09.261Z,2.30
2023-09-26T08:43:36.694Z,2.42
2023-09-26T08:46:05.725Z,2.40
2023-09-26T08:48:33.575Z,2.40
2023-09-26T08:51:00.420Z,2.38
2023-09-26T08:53:27.093Z,2.50
2023-09-26T08:55:53.549Z,2.50
2023-09-26T08:58:22.036Z,2.78
2023-09-26T09:00:49.186Z,2.63
2023-09-26T09:03:15.920Z,2.60
2023-09-26T09:05:42.603Z,2.80
2023-09-26T09:08:10.234Z,2.70
2023-09-26T09:10:52.435Z,2.53
2023-09-26T09:13:35.235Z,2.47
2023-09-26T09:16:28.128Z,2.22
2023-09-26T09:18:58.644Z,2.00
2023-09-26T09:21:35.510Z,2.63
2023-09-26T09:24:08.869Z,2.53
2023-09-26T09:26:37.412Z,2.50
2023-09-26T09:29:19.978Z,2.58
2023-09-26T09:31:46.757Z,2.88
2023-09-26T09:34:13.442Z,2.78
2023-09-26T09:36:40.494Z,2.45
2023-09-26T09:39:10.529Z,2.75
2023-09-26T09:44:06.809Z,2.47
2023-09-26T09:46:36.921Z,2.00
2023-09-26T09:49:04.854Z,2.05
2023-09-26T09:51:31.543Z,2.38
2023-09-26T09:54:01.306Z,2.42
2023-09-26T09:56:35.376Z,2.22
2023-09-26T09:59:07.027Z,2.03
2023-09-26T10:01:36.845Z,2.35
2023-09-26T10:04:04.118Z,2.63
2023-09-26T10:06:31.219Z,2.40
2023-09-26T10:08:58.195Z,2.25
2023-09-26T10:11:27.533Z,2.40
2023-09-26T10:13:54.116Z,2.55
2023-09-26T10:16:20.786Z,2.33
2023-09-26T10:18:52.143Z,1.98
2023-09-26T10:21:26.806Z,1.88
2023-09-26T10:24:13.511Z,1.50
2023-09-26T10:26:46.717Z,1.70
2023-09-26T10:29:22.436Z,2.22
2023-09-26T10:32:00.615Z,1.50
2023-09-26T10:34:38.791Z,1.08
2023-09-26T10:37:15.651Z,1.30
2023-09-26T10:39:43.772Z,1.33
2023-09-26T10:42:40.910Z,1.60
2023-09-26T10:45:01.544Z,1.30
2023-09-26T10:47:27.953Z,1.30
2023-09-26T10:49:56.637Z,1.17
2023-09-26T10:52:25.180Z,1.33
2023-09-26T10:54:52.666Z,1.60
2023-09-26T10:57:19.631Z,1.15
2023-09-26T10:59:46.164Z,1.10
2023-09-26T11:02:12.948Z,0.98
2023-09-26T11:07:27.627Z,1.27
2023-09-26T11:09:54.302Z,1.38
2023-09-26T11:12:20.890Z,1.00
2023-09-26T11:14:47.357Z,1.00
2023-09-26T11:17:13.893Z,1.20
2023-09-26T11:19:40.378Z,1.10
2023-09-26T11:22:07.624Z,0.80
2023-09-26T11:24:34.242Z,1.15
2023-09-26T11:27:06.169Z,1.23
2023-09-26T11:29:35.948Z,1.13
2023-09-26T11:32:04.861Z,1.05
2023-09-26T11:34:31.901Z,1.03
2023-09-26T11:36:59.160Z,1.10
2023-09-26T11:39:25.981Z,0.93
2023-09-26T11:42:09.873Z,0.88
2023-09-26T11:44:36.975Z,0.85
2023-09-26T11:47:09.360Z,0.90
2023-09-26T11:49:36.571Z,0.73
2023-09-26T11:52:03.493Z,1.00
2023-09-26T11:54:29.975Z,0.63
2023-09-26T11:56:56.909Z,0.95
2023-09-26T11:59:23.401Z,0.88
2023-09-26T12:01:49.903Z,0.63
2023-09-26T12:04:17.210Z,0.98
2023-09-26T12:06:43.666Z,1.13
2023-09-26T12:09:20.321Z,1.10
2023-09-26T12:11:48.131Z,0.70
2023-09-26T12:14:18.678Z,0.90
2023-09-26T12:16:51.606Z,0.80
2023-09-26T12:19:20.334Z,0.68
2023-09-26T12:21:48.102Z,0.80
2023-09-26T12:24:18.139Z,0.80
2023-09-26T12:29:15.810Z,0.75
2023-09-26T12:31:46.825Z,0.80
2023-09-26T12:34:15.644Z,1.15
2023-09-26T12:36:42.812Z,0.70
2023-09-26T12:39:09.268Z,1.00
2023-09-26T12:41:35.840Z,1.00
2023-09-26T12:44:02.621Z,0.90
2023-09-26T12:46:29.707Z,1.00
2023-09-26T12:48:56.287Z,0.77
2023-09-26T12:51:22.744Z,0.70
2023-09-26T12:53:49.335Z,0.90
2023-09-26T12:56:15.727Z,0.90
2023-09-26T12:58:42.420Z,0.80
2023-09-26T13:01:09.125Z,0.90
2023-09-26T13:03:36.554Z,1.08
2023-09-26T13:06:03.067Z,0.70
2023-09-26T13:08:29.443Z,0.73
2023-09-26T13:10:55.890Z,0.82
2023-09-26T13:13:22.486Z,1.23
2023-09-26T13:15:48.941Z,1.00
2023-09-26T13:18:15.504Z,0.85
2023-09-26T13:20:41.921Z,0.65
2023-09-26T13:23:08.416Z,1.00
2023-09-26T13:25:35.371Z,0.73
2023-09-26T13:28:01.819Z,0.80
2023-09-26T13:30:29.767Z,1.00
2023-09-26T13:32:57.392Z,1.20
2023-09-26T13:35:26.585Z,0.75
2023-09-26T13:37:53.635Z,0.95
2023-09-26T13:40:20.249Z,1.00
2023-09-26T13:42:46.622Z,0.70
2023-09-26T13:45:14.052Z,0.90
2023-09-26T13:47:40.602Z,0.82
2023-09-26T13:50:07.563Z,0.93
2023-09-26T13:52:34.038Z,1.00
2023-09-26T13:55:00.470Z,1.23
2023-09-26T13:57:26.952Z,0.75
2023-09-26T13:59:53.415Z,0.90
2023-09-26T14:02:20.166Z,0.98
2023-09-26T14:05:03.573Z,1.00
2023-09-26T14:07:33.539Z,0.95
2023-09-26T14:10:00.298Z,1.10
2023-09-26T14:12:26.903Z,1.13
2023-09-26T14:14:53.331Z,1.10
2023-09-26T14:17:19.754Z,1.08
2023-09-26T14:19:46.213Z,1.00
2023-09-26T14:22:12.672Z,1.00
2023-09-26T14:24:49.706Z,1.00
2023-09-26T14:27:18.547Z,0.98
2023-09-26T14:29:45.128Z,1.00
2023-09-26T14:32:11.729Z,0.77
2023-09-26T14:34:38.231Z,0.88
2023-09-26T14:37:04.698Z,0.77
2023-09-26T14:39:31.526Z,0.70
2023-09-26T14:41:57.986Z,0.90
2023-09-26T14:44:24.546Z,0.80
2023-09-26T14:46:51.384Z,0.80
2023-09-26T14:49:17.913Z,0.80
2023-09-26T14:51:44.324Z,0.80
2023-09-26T14:54:10.970Z,0.77
2023-09-26T14:56:37.506Z,0.80
2023-09-26T14:59:03.999Z,1.05
2023-09-26T15:01:30.412Z,0.90
2023-09-26T15:03:56.940Z,0.90
2023-09-26T15:06:23.793Z,1.05
2023-09-26T15:08:50.203Z,0.70
2023-09-26T15:11:16.629Z,0.93
2023-09-26T15:13:43.161Z,0.90
2023-09-26T15:16:10.229Z,0.95
2023-09-26T15:18:37.494Z,0.75
2023-09-26T15:21:04.066Z,0.70
2023-09-26T15:23:30.548Z,0.70
2023-09-26T15:25:57.656Z,0.70
2023-09-26T15:28:24.203Z,0.75
2023-09-26T15:30:51.928Z,0.63
2023-09-26T15:33:19.697Z,0.70
2023-09-26T15:35:46.241Z,1.00
2023-09-26T15:38:12.690Z,0.90
2023-09-26T15:40:39.209Z,1.02
2023-09-26T15:43:06.017Z,0.77
2023-09-26T15:45:33.794Z,0.80
2023-09-26T15:48:01.343Z,0.70
2023-09-26T15:50:29.957Z,0.90
2023-09-26T15:52:57.532Z,0.88
2023-09-26T15:55:25.067Z,1.10
2023-09-26T15:57:52.412Z,0.93
2023-09-26T16:00:21.655Z,0.75
2023-09-26T16:02:48.133Z,0.90
2023-09-26T16:05:14.898Z,0.82
2023-09-26T16:07:41.400Z,1.33
2023-09-26T16:10:08.323Z,1.77
2023-09-26T16:12:39.801Z,2.05
2023-09-26T16:15:10.043Z,2.13
2023-09-26T16:17:36.555Z,1.80
2023-09-26T16:20:04.876Z,1.50
2023-09-26T16:22:31.293Z,1.15
2023-09-26T16:24:57.728Z,1.00
2023-09-26T16:27:24.192Z,1.05
2023-09-26T16:29:50.699Z,0.77
2023-09-26T16:32:17.246Z,1.05
2023-09-26T16:34:43.735Z,0.90
2023-09-26T16:37:10.288Z,1.17
2023-09-26T16:39:37.872Z,1.05
2023-09-26T16:42:04.399Z,0.90
2023-09-26T16:44:30.867Z,0.95
2023-09-26T16:46:58.188Z,1.00
2023-09-26T16:49:24.752Z,1.00
2023-09-26T16:51:51.560Z,0.98
2023-09-26T16:54:18.729Z,0.90
2023-09-26T16:56:45.177Z,1.10
2023-09-26T16:59:11.643Z,0.70
2023-09-26T17:01:38.180Z,0.90
2023-09-26T17:04:04.969Z,1.00
2023-09-26T17:06:31.472Z,0.90
2023-09-26T17:08:57.909Z,0.95
2023-09-26T17:11:24.453Z,0.93
2023-09-26T17:13:50.826Z,1.13
2023-09-26T17:16:17.299Z,1.20
2023-09-26T17:18:43.875Z,1.00
2023-09-26T17:21:11.131Z,0.90
2023-09-26T17:23:37.572Z,1.00
2023-09-26T17:26:04.073Z,1.08
2023-09-26T17:28:30.532Z,0.88
2023-09-26T17:30:58.421Z,0.95
2023-09-26T17:33:24.960Z,1.00
2023-09-26T17:35:51.497Z,0.95
2023-09-26T17:38:18.037Z,0.95
2023-09-26T17:40:44.783Z,0.93
2023-09-26T17:43:11.305Z,0.82
2023-09-26T17:45:37.832Z,1.08
2023-09-26T17:48:04.531Z,0.95
2023-09-26T17:50:31.033Z,0.90
2023-09-26T17:52:57.447Z,1.10
2023-09-26T17:55:23.945Z,0.88
2023-09-26T17:57:50.343Z,1.10
2023-09-26T18:00:17.156Z,0.80
2023-09-26T18:02:43.698Z,1.13
2023-09-26T18:05:10.342Z,0.90
2023-09-26T18:07:37.028Z,0.90
2023-09-26T18:10:04.136Z,0.88
2023-09-26T18:12:30.529Z,1.23
2023-09-26T18:14:56.996Z,1.10
2023-09-26T18:17:23.460Z,1.10
2023-09-26T18:19:50.246Z,0.98
2023-09-26T18:22:16.659Z,1.10
2023-09-26T18:24:43.136Z,1.10
2023-09-26T18:27:11.319Z,1.25
2023-09-26T18:29:37.780Z,1.30
2023-09-26T18:32:05.090Z,1.27
2023-09-26T18:34:31.593Z,1.08
2023-09-26T18:36:58.111Z,1.00
2023-09-26T18:39:25.577Z,1.30
2023-09-26T18:41:51.964Z,1.00
2023-09-26T18:44:18.394Z,1.27
2023-09-26T18:46:44.850Z,1.02
2023-09-26T18:49:11.304Z,1.05
2023-09-26T18:51:37.693Z,0.80
2023-09-26T18:54:04.386Z,1.08
2023-09-26T18:56:30.826Z,0.80
2023-09-26T18:58:57.699Z,1.15
2023-09-26T19:01:24.317Z,1.20
2023-09-26T19:03:52.252Z,1.05
2023-09-26T19:06:18.832Z,0.95
2023-09-26T19:08:45.835Z,1.17
2023-09-26T19:11:13.237Z,1.25
2023-09-26T19:13:39.690Z,1.30
2023-09-26T19:16:06.122Z,1.05
2023-09-26T19:18:32.545Z,1.70
2023-09-26T19:20:58.925Z,1.40
2023-09-26T19:23:25.374Z,1.08
2023-09-26T19:25:52.012Z,1.23
2023-09-26T19:28:19.119Z,1.08
2023-09-26T19:30:47.619Z,1.00
2023-09-26T19:33:14.252Z,0.85
2023-09-26T19:35:40.786Z,1.30
2023-09-26T19:38:08.456Z,1.50
2023-09-26T19:40:35.171Z,1.17
2023-09-26T19:43:03.249Z,1.20
2023-09-26T19:45:30.995Z,1.27
2023-09-26T19:47:57.599Z,1.17
2023-09-26T19:50:24.258Z,1.20
2023-09-26T19:52:50.709Z,1.40
2023-09-26T19:55:17.256Z,0.90
2023-09-26T19:57:46.897Z,1.23
2023-09-26T20:00:14.458Z,1.15
2023-09-26T20:02:41.580Z,1.17
2023-09-26T20:05:09.322Z,1.38
2023-09-26T20:07:36.709Z,1.35
2023-09-26T20:10:03.923Z,1.13
2023-09-26T20:12:30.333Z,1.13
2023-09-26T20:14:56.800Z,1.27
2023-09-26T20:17:23.213Z,1.13
2023-09-26T20:19:49.813Z,1.30
2023-09-26T20:22:16.246Z,1.20
2023-09-26T20:24:42.683Z,1.42
2023-09-26T20:27:09.068Z,1.15
2023-09-26T20:29:35.643Z,1.40
2023-09-26T20:32:02.311Z,1.42
2023-09-26T20:34:28.767Z,1.20
2023-09-26T20:36:55.984Z,1.30
2023-09-26T20:39:22.668Z,1.52
2023-09-26T20:41:49.073Z,1.52
2023-09-26T20:44:15.487Z,1.30
2023-09-26T20:46:42.049Z,1.40
2023-09-26T20:49:08.762Z,1.00
2023-09-26T20:51:35.145Z,1.25
2023-09-26T20:54:01.506Z,1.20
2023-09-26T20:56:27.946Z,1.50
2023-09-26T20:58:54.619Z,1.42
2023-09-26T21:01:21.219Z,1.20
2023-09-26T21:03:47.705Z,1.73
2023-09-26T21:06:15.688Z,1.23
2023-09-26T21:08:42.151Z,1.65
2023-09-26T21:11:08.759Z,1.40
2023-09-26T21:13:35.248Z,1.50
2023-09-26T21:16:22.747Z,1.70
2023-09-26T21:18:50.566Z,1.67
2023-09-26T21:21:22.040Z,1.50
2023-09-26T21:23:49.539Z,1.65
2023-09-26T21:26:17.107Z,2.10
2023-09-26T21:28:43.742Z,2.13
2023-09-26T21:31:10.196Z,1.60
2023-09-26T21:33:37.125Z,1.73
2023-09-26T21:36:05.176Z,1.30
2023-09-26T21:38:31.981Z,1.38
2023-09-26T21:40:58.938Z,1.58
2023-09-26T21:43:25.568Z,1.52
2023-09-26T21:45:52.877Z,1.38
2023-09-26T21:48:19.426Z,1.52
2023-09-26T21:50:45.916Z,1.20
2023-09-26T21:53:13.597Z,1.30
2023-09-26T21:55:40.134Z,1.13
2023-09-26T21:58:06.857Z,1.50
2023-09-26T22:00:33.232Z,1.67
2023-09-26T22:03:02.008Z,1.48
2023-09-26T22:05:30.038Z,1.48
2023-09-26T22:07:58.619Z,1.33
2023-09-26T22:10:26.642Z,1.20
2023-09-26T22:12:53.122Z,1.40
2023-09-26T22:15:20.118Z,1.70
2023-09-26T22:17:47.201Z,1.40
2023-09-26T22:20:15.760Z,1.42
2023-09-26T22:22:42.610Z,1.75
2023-09-26T22:25:10.653Z,1.30
2023-09-26T22:27:38.072Z,1.25
2023-09-26T22:30:06.798Z,1.60
2023-09-26T22:32:34.070Z,1.25
2023-09-26T22:35:02.298Z,1.20
2023-09-26T22:37:28.836Z,1.48
2023-09-26T22:39:55.616Z,2.33
2023-09-26T22:42:22.044Z,1.40
2023-09-26T22:44:50.981Z,1.60
2023-09-26T22:47:18.636Z,1.63
2023-09-26T22:49:45.391Z,1.50
2023-09-26T22:52:12.166Z,1.42
2023-09-26T22:54:38.654Z,1.70
2023-09-26T22:57:05.140Z,1.30
2023-09-26T22:59:31.659Z,1.40
2023-09-26T23:01:58.191Z,1.52
2023-09-26T23:04:24.634Z,1.50
2023-09-26T23:06:51.043Z,1.73
2023-09-26T23:09:18.027Z,1.20
2023-09-26T23:11:44.522Z,1.60
2023-09-26T23:14:10.997Z,1.60
2023-09-26T23:16:37.401Z,1.40
2023-09-26T23:19:05.765Z,2.30
2023-09-26T23:21:32.530Z,1.45
2023-09-26T23:23:59.249Z,1.58
2023-09-26T23:26:27.218Z,1.40
2023-09-26T23:28:54.004Z,1.58
2023-09-26T23:31:20.765Z,1.48
2023-09-26T23:33:47.355Z,1.50
2023-09-26T23:36:14.281Z,1.67
2023-09-26T23:38:43.838Z,1.67
2023-09-26T23:41:10.438Z,1.65
2023-09-26T23:43:37.223Z,1.85
2023-09-26T23:46:07.023Z,2.00
2023-09-26T23:48:33.609Z,1.90
2023-09-26T23:51:00.303Z,1.65
2023-09-26T23:53:27.621Z,2.10
2023-09-26T23:55:54.627Z,1.55
2023-09-26T23:58:21.571Z,1.80
